createdAt,value
2023-03-27T00:01:32.845Z,4.46
2023-03-27T00:04:00.379Z,4.50
2023-03-27T00:06:27.280Z,4.45
2023-03-27T00:08:55.594Z,4.41
2023-03-27T00:11:25.328Z,4.40
2023-03-27T00:13:54.788Z,4.34
2023-03-27T00:16:25.278Z,4.31
2023-03-27T00:18:52.841Z,4.32
2023-03-27T00:21:20.654Z,4.35
2023-03-27T00:23:47.812Z,4.25
2023-03-27T00:26:15.317Z,4.23
2023-03-27T00:28:42.211Z,4.28
2023-03-27T00:31:16.307Z,4.28
2023-03-27T00:33:43.656Z,4.24
2023-03-27T00:36:15.241Z,4.29
2023-03-27T00:38:48.387Z,4.32
2023-03-27T00:41:20.476Z,4.22
2023-03-27T00:43:48.672Z,4.20
2023-03-27T00:46:15.388Z,4.19
2023-03-27T00:48:46.273Z,4.20
2023-03-27T00:51:13.185Z,4.13
2023-03-27T00:53:40.027Z,4.06
2023-03-27T00:56:07.771Z,4.03
2023-03-27T00:58:46.562Z,4.06
2023-03-27T01:01:18.254Z,4.08
2023-03-27T01:03:50.066Z,4.08
2023-03-27T01:06:19.534Z,4.03
2023-03-27T01:08:46.788Z,3.96
2023-03-27T01:11:44.224Z,4.00
2023-03-27T01:14:35.676Z,3.95
2023-03-27T01:17:39.301Z,3.91
2023-03-27T01:20:44.768Z,3.85
2023-03-27T01:23:59.725Z,3.91
2023-03-27T01:26:35.573Z,3.92
2023-03-27T01:29:15.980Z,3.85
2023-03-27T01:32:07.355Z,3.84
2023-03-27T01:35:02.186Z,3.81
2023-03-27T01:37:38.225Z,3.85
2023-03-27T01:40:09.910Z,3.83
2023-03-27T01:42:47.039Z,3.83
2023-03-27T01:45:25.500Z,3.81
2023-03-27T01:48:29.214Z,3.81
2023-03-27T01:51:01.427Z,3.76
2023-03-27T01:53:37.280Z,3.76
2023-03-27T01:56:26.875Z,3.75
2023-03-27T01:59:03.927Z,3.70
2023-03-27T02:01:38.870Z,3.64
2023-03-27T02:04:10.821Z,3.59
2023-03-27T02:06:40.466Z,3.51
2023-03-27T02:09:07.244Z,3.50
2023-03-27T02:11:39.907Z,3.40
2023-03-27T02:14:12.254Z,3.36
2023-03-27T02:16:46.276Z,3.31
2023-03-27T02:19:35.501Z,3.30
2023-03-27T02:22:02.376Z,3.20
2023-03-27T02:24:29.515Z,3.17
2023-03-27T02:27:04.175Z,3.16
2023-03-27T02:30:05.596Z,3.06
2023-03-27T02:32:54.237Z,3.03
2023-03-27T02:35:44.601Z,2.87
2023-03-27T02:38:13.964Z,2.89
2023-03-27T02:40:40.612Z,2.75
2023-03-27T02:43:14.714Z,2.76
2023-03-27T02:46:06.357Z,2.55
2023-03-27T02:48:35.357Z,2.52
2023-03-27T02:51:07.384Z,2.44
2023-03-27T02:53:42.745Z,2.41
2023-03-27T02:56:11.869Z,2.48
2023-03-27T02:58:50.012Z,2.42
2023-03-27T03:01:19.694Z,2.37
2023-03-27T03:03:53.670Z,2.35
2023-03-27T03:06:21.628Z,2.28
2023-03-27T03:08:49.226Z,2.30
2023-03-27T03:11:15.823Z,2.29
2023-03-27T03:13:42.386Z,2.27
2023-03-27T03:16:10.020Z,2.30
2023-03-27T03:18:36.885Z,2.24
2023-03-27T03:21:04.586Z,2.27
2023-03-27T03:23:31.861Z,2.35
2023-03-27T03:25:58.412Z,2.30
2023-03-27T03:28:26.015Z,2.22
2023-03-27T03:30:53.867Z,2.27
2023-03-27T03:33:21.347Z,2.28
2023-03-27T03:35:50.012Z,2.30
2023-03-27T03:38:25.028Z,2.28
2023-03-27T03:40:58.492Z,2.26
2023-03-27T03:43:27.520Z,2.29
2023-03-27T03:45:54.524Z,2.19
2023-03-27T03:48:22.447Z,2.22
2023-03-27T03:50:49.843Z,2.25
2023-03-27T03:53:19.651Z,2.29
2023-03-27T03:55:46.409Z,2.23
2023-03-27T03:58:14.932Z,2.30
2023-03-27T04:00:41.440Z,2.41
2023-03-27T04:03:09.805Z,2.28
2023-03-27T04:05:40.524Z,2.34
2023-03-27T04:08:07.476Z,2.29
2023-03-27T04:10:36.342Z,2.25
2023-03-27T04:13:04.222Z,2.15
2023-03-27T04:15:30.807Z,2.01
2023-03-27T04:18:00.290Z,2.00
2023-03-27T04:20:26.940Z,1.97
2023-03-27T04:22:54.470Z,1.99
2023-03-27T04:25:23.815Z,2.05
2023-03-27T04:27:53.596Z,2.09
2023-03-27T04:30:24.394Z,2.10
2023-03-27T04:32:52.589Z,2.02
2023-03-27T04:35:20.460Z,1.98
2023-03-27T04:37:48.225Z,2.04
2023-03-27T04:40:18.122Z,2.03
2023-03-27T04:42:45.399Z,2.09
2023-03-27T04:45:23.306Z,2.09
2023-03-27T04:47:49.942Z,2.11
2023-03-27T04:50:17.120Z,2.14
2023-03-27T04:52:44.092Z,2.19
2023-03-27T04:55:12.179Z,2.14
2023-03-27T04:57:39.721Z,2.17
2023-03-27T05:00:16.371Z,2.12
2023-03-27T05:02:43.349Z,2.14
2023-03-27T05:05:10.146Z,2.17
2023-03-27T05:07:37.266Z,2.23
2023-03-27T05:10:05.094Z,2.18
2023-03-27T05:12:32.042Z,2.24
2023-03-27T05:14:59.459Z,2.20
2023-03-27T05:17:26.047Z,2.30
2023-03-27T05:19:52.598Z,2.34
2023-03-27T05:22:19.045Z,2.30
2023-03-27T05:24:45.674Z,2.31
2023-03-27T05:27:12.115Z,2.40
2023-03-27T05:29:46.954Z,2.39
2023-03-27T05:32:14.435Z,2.38
2023-03-27T05:34:41.431Z,2.44
2023-03-27T05:37:07.951Z,2.47
2023-03-27T05:39:37.960Z,2.45
2023-03-27T05:42:04.525Z,2.46
2023-03-27T05:44:31.231Z,2.59
2023-03-27T05:47:01.446Z,2.60
2023-03-27T05:49:31.840Z,2.60
2023-03-27T05:52:02.615Z,2.68
2023-03-27T05:54:29.460Z,2.62
2023-03-27T05:56:56.435Z,2.74
2023-03-27T05:59:22.953Z,2.82
2023-03-27T06:01:49.463Z,2.78
2023-03-27T06:04:17.982Z,2.71
2023-03-27T06:06:45.458Z,2.68
2023-03-27T06:09:12.679Z,2.63
2023-03-27T06:11:40.590Z,2.66
2023-03-27T06:14:07.176Z,2.76
2023-03-27T06:16:37.182Z,2.83
2023-03-27T06:19:04.407Z,2.86
2023-03-27T06:21:31.020Z,2.77
2023-03-27T06:23:57.522Z,2.75
2023-03-27T06:26:24.328Z,2.76
2023-03-27T06:28:50.816Z,2.80
2023-03-27T06:31:20.685Z,2.89
2023-03-27T06:33:47.281Z,3.00
2023-03-27T06:36:14.711Z,3.00
2023-03-27T06:38:41.988Z,2.93
2023-03-27T06:41:08.542Z,2.87
2023-03-27T06:43:35.144Z,2.81
2023-03-27T06:46:03.284Z,2.76
2023-03-27T06:48:30.023Z,2.73
2023-03-27T06:50:56.846Z,2.77
2023-03-27T06:53:27.729Z,2.76
2023-03-27T06:55:55.815Z,2.80
2023-03-27T06:58:23.362Z,2.99
2023-03-27T07:00:50.422Z,3.12
2023-03-27T07:03:19.435Z,3.21
2023-03-27T07:05:46.049Z,3.21
2023-03-27T07:08:23.489Z,3.15
2023-03-27T07:11:03.895Z,3.07
2023-03-27T07:13:38.085Z,3.21
2023-03-27T07:16:05.023Z,3.25
2023-03-27T07:18:31.565Z,3.33
2023-03-27T07:20:58.311Z,3.26
2023-03-27T07:23:25.013Z,3.20
2023-03-27T07:25:52.166Z,3.37
2023-03-27T07:28:19.431Z,3.29
2023-03-27T07:30:46.200Z,3.31
2023-03-27T07:33:13.131Z,3.55
2023-03-27T07:35:48.219Z,3.74
2023-03-27T07:38:16.581Z,3.74
2023-03-27T07:40:46.384Z,3.73
2023-03-27T07:43:16.389Z,3.80
2023-03-27T07:45:42.864Z,3.94
2023-03-27T07:48:14.251Z,3.77
2023-03-27T07:50:40.712Z,3.68
2023-03-27T07:53:07.329Z,3.66
2023-03-27T07:55:36.823Z,3.68
2023-03-27T07:58:04.228Z,3.82
2023-03-27T08:00:32.474Z,3.89
2023-03-27T08:03:10.652Z,4.00
2023-03-27T08:05:38.412Z,4.09
2023-03-27T08:08:05.530Z,4.31
2023-03-27T08:10:32.490Z,4.22
2023-03-27T08:12:59.000Z,4.43
2023-03-27T08:15:25.778Z,4.51
2023-03-27T08:17:54.892Z,4.65
2023-03-27T08:20:23.858Z,4.74
2023-03-27T08:22:52.484Z,4.81
2023-03-27T08:25:19.558Z,4.86
2023-03-27T08:27:46.654Z,4.91
2023-03-27T08:30:16.686Z,4.77
2023-03-27T08:32:43.930Z,4.85
2023-03-27T08:35:10.931Z,4.68
2023-03-27T08:37:37.690Z,4.42
2023-03-27T08:40:11.009Z,4.25
2023-03-27T08:42:42.166Z,4.31
2023-03-27T08:45:36.708Z,4.32
2023-03-27T08:48:09.077Z,4.27
2023-03-27T08:50:46.482Z,4.22
2023-03-27T08:53:41.086Z,4.28
2023-03-27T08:56:13.565Z,4.28
2023-03-27T08:58:43.714Z,4.68
2023-03-27T09:01:45.597Z,5.34
2023-03-27T09:04:44.155Z,5.39
2023-03-27T09:07:31.461Z,5.20
2023-03-27T09:10:09.344Z,5.42
2023-03-27T09:13:05.133Z,5.56
2023-03-27T09:15:36.965Z,5.43
2023-03-27T09:18:24.979Z,5.12
2023-03-27T09:20:59.145Z,4.97
2023-03-27T09:23:34.587Z,4.82
2023-03-27T09:26:16.540Z,4.87
2023-03-27T09:28:59.761Z,5.03
2023-03-27T09:31:30.345Z,4.99
2023-03-27T09:34:00.502Z,5.06
2023-03-27T09:36:29.410Z,5.08
2023-03-27T09:39:02.411Z,5.05
2023-03-27T09:41:33.573Z,4.97
2023-03-27T09:44:09.032Z,5.36
2023-03-27T09:46:40.249Z,6.03
2023-03-27T09:49:21.146Z,6.23
2023-03-27T09:51:53.136Z,6.30
2023-03-27T09:54:21.691Z,5.70
2023-03-27T09:57:01.839Z,5.50
2023-03-27T09:59:33.157Z,5.38
2023-03-27T10:02:09.111Z,5.24
2023-03-27T10:04:36.612Z,5.14
2023-03-27T10:07:08.196Z,5.08
2023-03-27T10:09:37.184Z,4.98
2023-03-27T10:12:15.719Z,4.87
2023-03-27T10:14:50.628Z,4.82
2023-03-27T10:17:34.933Z,4.61
2023-03-27T10:20:24.262Z,4.38
2023-03-27T10:22:54.871Z,4.54
2023-03-27T10:25:29.512Z,4.48
2023-03-27T10:28:19.818Z,4.45
2023-03-27T10:30:47.088Z,4.53
2023-03-27T10:33:13.711Z,4.56
2023-03-27T10:35:44.661Z,4.65
2023-03-27T10:38:18.830Z,4.83
2023-03-27T10:40:49.599Z,5.04
2023-03-27T10:43:25.614Z,5.11
2023-03-27T10:46:00.649Z,5.48
2023-03-27T10:48:33.314Z,6.00
2023-03-27T10:51:05.585Z,6.66
2023-03-27T10:53:43.281Z,6.91
2023-03-27T10:56:34.482Z,7.19
2023-03-27T10:59:14.139Z,7.28
2023-03-27T11:01:48.724Z,7.47
2023-03-27T11:04:20.859Z,7.43
2023-03-27T11:06:50.762Z,7.48
2023-03-27T11:09:38.870Z,6.93
2023-03-27T11:12:10.257Z,6.30
2023-03-27T11:14:59.353Z,5.90
2023-03-27T11:17:32.415Z,5.82
2023-03-27T11:20:13.526Z,5.84
2023-03-27T11:22:51.494Z,6.39
2023-03-27T11:25:39.054Z,6.81
2023-03-27T11:28:23.925Z,7.14
2023-03-27T11:31:12.112Z,7.48
2023-03-27T11:33:50.461Z,7.21
2023-03-27T11:36:39.704Z,6.84
2023-03-27T11:39:15.558Z,6.61
2023-03-27T11:41:47.397Z,6.38
2023-03-27T11:44:13.941Z,6.01
2023-03-27T11:47:09.815Z,5.31
2023-03-27T11:49:39.344Z,4.42
2023-03-27T11:52:19.441Z,3.78
2023-03-27T11:55:06.710Z,3.63
2023-03-27T11:57:49.607Z,4.17
2023-03-27T12:00:19.102Z,4.64
2023-03-27T12:03:02.210Z,5.08
2023-03-27T12:05:43.166Z,4.96
2023-03-27T12:08:24.805Z,4.77
2023-03-27T12:10:54.095Z,4.65
2023-03-27T12:13:28.819Z,4.62
2023-03-27T12:16:38.484Z,4.13
2023-03-27T12:19:30.927Z,3.90
2023-03-27T12:22:09.297Z,3.84
2023-03-27T12:25:00.715Z,3.92
2023-03-27T12:27:34.321Z,3.83
2023-03-27T12:30:39.690Z,3.73
2023-03-27T12:33:16.263Z,3.56
2023-03-27T12:35:50.369Z,3.40
2023-03-27T12:38:51.861Z,3.09
2023-03-27T12:41:28.598Z,2.94
2023-03-27T12:44:04.407Z,3.07
2023-03-27T12:46:34.094Z,3.13
2023-03-27T12:49:07.578Z,3.13
2023-03-27T12:51:42.358Z,3.10
2023-03-27T12:54:32.847Z,2.92
2023-03-27T12:57:24.223Z,2.87
2023-03-27T12:59:56.005Z,2.93
2023-03-27T13:02:34.505Z,3.08
2023-03-27T13:05:26.770Z,3.34
2023-03-27T13:08:20.260Z,3.44
2023-03-27T13:11:03.355Z,3.55
2023-03-27T13:13:58.003Z,3.60
2023-03-27T13:16:42.446Z,3.68
2023-03-27T13:19:30.565Z,3.79
2023-03-27T13:22:03.670Z,4.00
2023-03-27T13:25:02.641Z,4.30
2023-03-27T13:27:59.547Z,4.34
2023-03-27T13:30:48.484Z,4.47
2023-03-27T13:33:35.845Z,4.52
2023-03-27T13:36:20.159Z,4.74
2023-03-27T13:38:52.800Z,4.97
2023-03-27T13:41:51.791Z,5.07
2023-03-27T13:44:28.365Z,5.01
2023-03-27T13:47:33.568Z,4.89
2023-03-27T13:50:31.251Z,4.80
2023-03-27T13:53:37.927Z,4.81
2023-03-27T13:56:22.252Z,5.05
2023-03-27T13:59:19.988Z,5.39
2023-03-27T14:01:55.866Z,5.64
2023-03-27T14:05:00.343Z,5.41
2023-03-27T14:08:06.431Z,5.38
2023-03-27T14:11:10.483Z,5.48
2023-03-27T14:14:02.961Z,5.44
2023-03-27T14:16:50.490Z,5.12
2023-03-27T14:19:36.136Z,4.75
2023-03-27T14:22:10.164Z,4.72
2023-03-27T14:24:44.311Z,4.69
2023-03-27T14:27:16.055Z,4.56
2023-03-27T14:29:42.576Z,4.53
2023-03-27T14:32:17.440Z,4.67
2023-03-27T14:35:02.512Z,4.81
2023-03-27T14:37:32.068Z,4.97
2023-03-27T14:40:01.912Z,4.97
2023-03-27T14:42:32.762Z,4.89
2023-03-27T14:45:21.788Z,4.78
2023-03-27T14:47:55.630Z,4.86
2023-03-27T14:50:23.174Z,4.87
2023-03-27T14:52:54.354Z,4.81
2023-03-27T14:55:24.151Z,4.90
2023-03-27T14:57:55.363Z,5.07
2023-03-27T15:00:24.493Z,5.29
2023-03-27T15:02:54.713Z,5.26
2023-03-27T15:05:22.498Z,5.11
2023-03-27T15:07:50.166Z,5.05
2023-03-27T15:10:22.616Z,4.95
2023-03-27T15:12:49.293Z,4.84
2023-03-27T15:15:34.787Z,4.63
2023-03-27T15:18:05.128Z,3.48
2023-03-27T15:20:34.475Z,2.96
2023-03-27T15:23:23.063Z,2.66
2023-03-27T15:26:02.560Z,2.57
2023-03-27T15:28:36.694Z,2.53
2023-03-27T15:31:05.835Z,2.68
2023-03-27T15:33:47.979Z,2.84
2023-03-27T15:36:28.610Z,3.00
2023-03-27T15:39:03.682Z,3.13
2023-03-27T15:41:32.859Z,3.03
2023-03-27T15:44:05.342Z,2.94
2023-03-27T15:46:47.988Z,3.00
2023-03-27T15:49:25.701Z,3.01
2023-03-27T15:51:52.680Z,3.00
2023-03-27T15:54:34.960Z,2.94
2023-03-27T15:57:09.382Z,2.96
2023-03-27T15:59:52.870Z,2.99
2023-03-27T16:02:21.568Z,3.00
2023-03-27T16:04:56.654Z,3.13
2023-03-27T16:07:32.809Z,3.18
2023-03-27T16:10:06.791Z,3.27
2023-03-27T16:12:58.354Z,3.28
2023-03-27T16:15:38.022Z,3.26
2023-03-27T16:18:18.666Z,3.27
2023-03-27T16:20:45.349Z,3.30
2023-03-27T16:23:14.792Z,3.33
2023-03-27T16:25:41.602Z,3.30
2023-03-27T16:28:10.173Z,3.31
2023-03-27T16:30:39.588Z,3.32
2023-03-27T16:33:15.389Z,3.34
2023-03-27T16:35:42.595Z,3.37
2023-03-27T16:38:09.099Z,3.41
2023-03-27T16:40:35.912Z,3.43
2023-03-27T16:43:04.563Z,3.42
2023-03-27T16:45:31.556Z,3.44
2023-03-27T16:47:58.193Z,3.41
2023-03-27T16:50:26.795Z,3.38
2023-03-27T16:52:53.377Z,3.39
2023-03-27T16:55:19.938Z,3.41
2023-03-27T16:57:46.711Z,3.43
2023-03-27T17:00:15.537Z,3.42
2023-03-27T17:02:44.345Z,3.40
2023-03-27T17:05:11.462Z,3.43
2023-03-27T17:07:41.971Z,3.46
2023-03-27T17:10:10.158Z,3.51
2023-03-27T17:12:36.681Z,3.52
2023-03-27T17:15:03.631Z,3.58
2023-03-27T17:17:30.505Z,3.52
2023-03-27T17:19:57.265Z,3.51
2023-03-27T17:22:23.806Z,3.48
2023-03-27T17:24:56.755Z,3.43
2023-03-27T17:27:28.843Z,3.43
2023-03-27T17:29:57.975Z,3.48
2023-03-27T17:32:26.064Z,3.49
2023-03-27T17:34:52.938Z,3.48
2023-03-27T17:37:20.851Z,3.52
2023-03-27T17:39:47.537Z,3.52
2023-03-27T17:42:14.086Z,3.52
2023-03-27T17:44:41.488Z,3.55
2023-03-27T17:47:08.425Z,3.51
2023-03-27T17:49:35.332Z,3.50
2023-03-27T17:52:07.684Z,3.52
2023-03-27T17:54:34.865Z,3.55
2023-03-27T17:57:01.713Z,3.56
2023-03-27T17:59:30.361Z,3.56
2023-03-27T18:01:57.641Z,3.52
2023-03-27T18:04:26.215Z,3.51
2023-03-27T18:06:53.087Z,3.58
2023-03-27T18:09:23.356Z,3.57
2023-03-27T18:11:49.953Z,3.58
2023-03-27T18:14:16.552Z,3.57
2023-03-27T18:16:43.157Z,3.62
2023-03-27T18:19:09.939Z,3.59
2023-03-27T18:21:36.404Z,3.57
2023-03-27T18:24:03.499Z,3.56
2023-03-27T18:26:30.123Z,3.59
2023-03-27T18:29:00.109Z,3.58
2023-03-27T18:31:27.005Z,3.56
2023-03-27T18:33:53.507Z,3.58
2023-03-27T18:36:20.363Z,3.64
2023-03-27T18:38:49.145Z,3.59
2023-03-27T18:41:16.501Z,3.55
2023-03-27T18:43:42.951Z,3.49
2023-03-27T18:46:10.781Z,3.49
2023-03-27T18:48:37.347Z,3.52
2023-03-27T18:51:05.781Z,3.48
2023-03-27T18:53:32.678Z,3.52
2023-03-27T18:55:59.848Z,3.47
2023-03-27T18:58:28.125Z,3.42
2023-03-27T19:00:55.718Z,3.39
2023-03-27T19:03:24.578Z,3.32
2023-03-27T19:05:52.705Z,3.34
2023-03-27T19:08:21.372Z,3.27
2023-03-27T19:10:48.217Z,3.25
2023-03-27T19:13:14.747Z,3.22
2023-03-27T19:15:42.069Z,3.20
2023-03-27T19:18:11.308Z,3.22
2023-03-27T19:20:40.864Z,3.24
2023-03-27T19:23:07.702Z,3.23
2023-03-27T19:25:35.323Z,3.23
2023-03-27T19:28:02.979Z,3.25
2023-03-27T19:30:29.824Z,3.22
2023-03-27T19:32:58.190Z,3.24
2023-03-27T19:35:25.790Z,3.21
2023-03-27T19:37:52.334Z,3.17
2023-03-27T19:40:18.765Z,3.19
2023-03-27T19:42:45.388Z,3.14
2023-03-27T19:45:11.926Z,3.09
2023-03-27T19:47:38.475Z,3.09
2023-03-27T19:50:07.126Z,3.05
2023-03-27T19:52:33.614Z,3.04
2023-03-27T19:55:00.587Z,3.06
2023-03-27T19:57:27.451Z,3.07
2023-03-27T19:59:53.916Z,3.00
2023-03-27T20:02:20.949Z,3.02
2023-03-27T20:04:47.448Z,3.00
2023-03-27T20:07:13.948Z,2.93
2023-03-27T20:09:40.700Z,2.90
2023-03-27T20:12:07.434Z,2.91
2023-03-27T20:14:33.903Z,2.86
2023-03-27T20:17:00.581Z,2.87
2023-03-27T20:19:30.363Z,2.87
2023-03-27T20:22:00.316Z,2.85
2023-03-27T20:24:26.867Z,2.82
2023-03-27T20:26:56.993Z,2.79
2023-03-27T20:29:26.878Z,2.83
2023-03-27T20:31:53.839Z,2.78
2023-03-27T20:34:22.365Z,2.75
2023-03-27T20:36:53.174Z,2.78
2023-03-27T20:39:20.733Z,2.78
2023-03-27T20:41:47.311Z,2.84
2023-03-27T20:44:19.784Z,2.78
2023-03-27T20:46:47.824Z,2.74
2023-03-27T20:49:40.181Z,2.74
2023-03-27T20:52:12.525Z,2.71
2023-03-27T20:54:41.194Z,2.74
2023-03-27T20:57:08.320Z,2.72
2023-03-27T20:59:35.371Z,2.75
2023-03-27T21:02:02.321Z,2.74
2023-03-27T21:04:31.478Z,2.76
2023-03-27T21:06:58.521Z,2.75
2023-03-27T21:09:26.734Z,2.75
2023-03-27T21:11:54.925Z,2.82
2023-03-27T21:14:25.274Z,2.87
2023-03-27T21:16:51.827Z,2.83
2023-03-27T21:19:18.491Z,2.88
2023-03-27T21:21:45.153Z,2.91
2023-03-27T21:24:11.773Z,2.93
2023-03-27T21:26:39.489Z,2.94
2023-03-27T21:29:06.052Z,2.94
2023-03-27T21:31:32.535Z,2.98
2023-03-27T21:33:59.132Z,2.88
2023-03-27T21:36:29.747Z,2.82
2023-03-27T21:38:56.589Z,2.85
2023-03-27T21:41:26.753Z,2.82
2023-03-27T21:43:53.296Z,2.78
2023-03-27T21:46:19.795Z,2.74
2023-03-27T21:48:49.160Z,2.78
2023-03-27T21:51:15.797Z,2.72
2023-03-27T21:53:42.573Z,2.74
2023-03-27T21:56:09.237Z,2.79
2023-03-27T21:58:35.820Z,2.76
2023-03-27T22:01:02.363Z,2.70
2023-03-27T22:03:29.523Z,2.71
2023-03-27T22:08:36.817Z,2.68
2023-03-27T22:11:03.548Z,2.87
2023-03-27T22:13:30.197Z,2.82
2023-03-27T22:15:57.002Z,2.79
2023-03-27T22:18:24.754Z,2.81
2023-03-27T22:20:51.299Z,2.81
2023-03-27T22:23:17.820Z,2.82
2023-03-27T22:25:52.442Z,2.84
2023-03-27T22:28:18.910Z,2.84
2023-03-27T22:30:45.462Z,2.86
2023-03-27T22:33:11.910Z,2.86
2023-03-27T22:35:38.405Z,2.86
2023-03-27T22:38:04.914Z,2.88
2023-03-27T22:40:31.599Z,2.93
2023-03-27T22:42:58.040Z,2.90
2023-03-27T22:45:24.532Z,2.89
2023-03-27T22:47:51.135Z,2.89
2023-03-27T22:50:17.743Z,2.87
2023-03-27T22:52:44.239Z,2.91
2023-03-27T22:55:10.765Z,2.93
2023-03-27T22:57:37.681Z,2.93
2023-03-27T23:00:06.880Z,2.89
2023-03-27T23:02:33.468Z,2.89
2023-03-27T23:05:00.592Z,2.88
2023-03-27T23:07:27.111Z,2.92
2023-03-27T23:09:53.601Z,2.93
2023-03-27T23:12:20.270Z,2.89
2023-03-27T23:14:46.712Z,2.88
2023-03-27T23:17:13.227Z,2.85
2023-03-27T23:19:39.736Z,2.85
2023-03-27T23:22:06.231Z,2.90
2023-03-27T23:24:32.698Z,2.80
2023-03-27T23:26:59.187Z,2.74
2023-03-27T23:29:25.748Z,2.69
2023-03-27T23:31:52.513Z,2.64
2023-03-27T23:34:18.989Z,2.61
2023-03-27T23:36:45.815Z,2.69
2023-03-27T23:39:12.253Z,2.57
2023-03-27T23:41:38.795Z,2.53
2023-03-27T23:44:05.414Z,2.48
2023-03-27T23:46:32.657Z,2.52
2023-03-27T23:48:59.518Z,2.60
2023-03-27T23:51:26.081Z,2.63
2023-03-27T23:53:52.575Z,2.74
2023-03-27T23:56:19.098Z,2.72
2023-03-27T23:58:46.784Z,2.78
